Time;durP1;ratioP1;P1;durP2;ratioP2;P2;SDS_P1;SDS_P2;PMS_P1;PMS_P2;Temp;Humidity;BMP_temperature;BMP_pressure;BME280_temperature;BME280_humidity;BME280_pressure;Samples;Min_cycle;Max_cycle;Signal;HPM_P1;HPM_P2
2021/12/24 00:00:38;;;;;;;24.64;8.01;;;;;;;;;;348317;152;856551;-55
2021/12/24 00:01:39;;;;;;;17.27;9.06;;;;;;;;;;348735;152;865835;-57
2021/12/24 00:02:41;;;;;;;17.95;8.54;;;;;;;;;;344667;152;859096;-57
2021/12/24 00:03:43;;;;;;;19.87;7.99;;;;;;;;;;345756;152;867126;-60
2021/12/24 00:04:44;;;;;;;13.54;7.14;;;;;;;;;;349007;152;861212;-56
2021/12/24 00:05:46;;;;;;;25.04;9.27;;;;;;;;;;342931;155;857137;-58
2021/12/24 00:06:51;;;;;;;24.57;12.75;;;;;;;;;;344954;152;864685;-58
2021/12/24 00:07:52;;;;;;;21.39;10.65;;;;;;;;;;347014;152;863680;-58
2021/12/24 00:08:55;;;;;;;21.48;9.54;;;;;;;;;;347245;153;864960;-58
2021/12/24 00:09:57;;;;;;;21.72;9.82;;;;;;;;;;346725;152;865949;-58
2021/12/24 00:11:00;;;;;;;25.46;9.64;;;;;;;;;;347396;151;859077;-58
2021/12/24 00:12:09;;;;;;;18.19;9.13;;;;;;;;;;345758;152;864960;-57
2021/12/24 00:13:10;;;;;;;17.48;8.01;;;;;;;;;;346543;152;859129;-58
2021/12/24 00:14:10;;;;;;;13.28;6.28;;;;;;;;;;347895;152;865985;-59
2021/12/24 00:16:40;;;;;;;16.76;7.47;;;;;;;;;;346559;152;866060;-58
2021/12/24 00:17:37;;;;;;;12.99;6.74;;;;;;;;;;344834;151;857762;-58
2021/12/24 00:20:03;;;;;;;27.21;9.36;;;;;;;;;;345129;153;858215;-58
2021/12/24 00:35:04;;;;;;;15.88;8.16;;;;;;;;;;324508;163;866189;-58
2021/12/24 00:35:11;;;;;;;17.63;8.66;;;;;;;;;;324987;163;856952;-58
2021/12/24 00:36:09;;;;;;;19.52;10.95;;;;;;;;;;332332;155;857630;-58
2021/12/24 00:37:11;;;;;;;19.55;9.60;;;;;;;;;;348657;152;857354;-58
2021/12/24 00:38:13;;;;;;;12.03;6.82;;;;;;;;;;347206;153;866222;-57
2021/12/24 00:39:14;;;;;;;11.77;7.10;;;;;;;;;;348147;151;859882;-57
2021/12/24 00:40:20;;;;;;;20.53;10.99;;;;;;;;;;350850;149;859376;-57
2021/12/24 00:41:22;;;;;;;15.83;8.42;;;;;;;;;;352186;148;857791;-57
2021/12/24 00:42:24;;;;;;;14.63;8.55;;;;;;;;;;350655;149;858812;-58
2021/12/24 00:43:25;;;;;;;15.80;7.71;;;;;;;;;;351006;149;865177;-58
2021/12/24 00:44:27;;;;;;;23.13;10.52;;;;;;;;;;351685;149;866995;-58
2021/12/24 00:45:30;;;;;;;15.96;8.27;;;;;;;;;;351898;150;859267;-59
2021/12/24 00:46:33;;;;;;;18.64;7.96;;;;;;;;;;353186;149;866199;-58
2021/12/24 00:47:35;;;;;;;13.94;6.95;;;;;;;;;;354194;149;857553;-58
2021/12/24 00:48:36;;;;;;;12.26;7.84;;;;;;;;;;353690;149;856863;-58
2021/12/24 00:49:38;;;;;;;20.10;9.86;;;;;;;;;;353474;149;864442;-58
2021/12/24 00:50:56;;;;;;;18.38;8.17;;;;;;;;;;355414;149;865219;-58
2021/12/24 00:52:18;;;;;;;16.77;8.50;;;;;;;;;;351311;149;857405;-58
2021/12/24 00:53:05;;;;;;;13.81;8.29;;;;;;;;;;350383;149;859315;-58
2021/12/24 00:55:27;;;;;;;11.34;6.84;;;;;;;;;;351870;149;857513;-58
2021/12/24 00:56:28;;;;;;;11.09;6.63;;;;;;;;;;352501;149;859848;-59
2021/12/24 00:57:30;;;;;;;10.04;5.94;;;;;;;;;;352518;150;857476;-59
2021/12/24 00:58:31;;;;;;;22.27;12.87;;;;;;;;;;352742;149;865479;-58
2021/12/24 00:59:33;;;;;;;20.61;9.11;;;;;;;;;;351902;149;865943;-58
2021/12/24 01:00:36;;;;;;;9.29;6.39;;;;;;;;;;352227;149;865996;-58
2021/12/24 01:01:37;;;;;;;13.06;7.68;;;;;;;;;;353687;149;866984;-58
2021/12/24 01:02:39;;;;;;;16.03;8.55;;;;;;;;;;350863;149;857320;-58
2021/12/24 01:03:41;;;;;;;20.71;8.39;;;;;;;;;;352209;149;867003;-58
2021/12/24 01:04:42;;;;;;;12.22;7.44;;;;;;;;;;352895;149;865538;-58
2021/12/24 01:05:44;;;;;;;10.89;7.36;;;;;;;;;;354272;150;865033;-58
2021/12/24 01:06:45;;;;;;;17.56;7.78;;;;;;;;;;351811;149;865117;-58
2021/12/24 01:07:49;;;;;;;10.66;5.49;;;;;;;;;;349743;149;864188;-56
2021/12/24 01:08:50;;;;;;;15.41;8.14;;;;;;;;;;353328;150;865099;-57
2021/12/24 01:09:52;;;;;;;14.41;8.21;;;;;;;;;;355398;149;860613;-57
2021/12/24 01:10:56;;;;;;;19.24;8.24;;;;;;;;;;352772;149;857482;-57
2021/12/24 01:11:57;;;;;;;17.19;6.64;;;;;;;;;;352041;149;866114;-57
2021/12/24 01:12:59;;;;;;;11.91;6.53;;;;;;;;;;353105;149;857480;-56
2021/12/24 01:14:00;;;;;;;15.84;7.71;;;;;;;;;;352676;149;865052;-57
2021/12/24 01:15:03;;;;;;;16.58;8.59;;;;;;;;;;354262;149;864070;-58
2021/12/24 01:16:18;;;;;;;15.59;8.58;;;;;;;;;;352531;149;866136;-57
2021/12/24 01:17:22;;;;;;;14.97;7.22;;;;;;;;;;349805;149;857488;-57
2021/12/24 01:18:24;;;;;;;15.71;7.71;;;;;;;;;;352974;150;857677;-57
2021/12/24 01:19:22;;;;;;;14.58;8.49;;;;;;;;;;351697;149;857363;-56
2021/12/24 01:20:38;;;;;;;14.76;7.71;;;;;;;;;;352331;149;865230;-58
2021/12/24 01:21:56;;;;;;;14.47;7.64;;;;;;;;;;350655;149;865137;-58
2021/12/24 01:23:32;;;;;;;11.73;7.28;;;;;;;;;;349396;149;857476;-58
2021/12/24 01:23:49;;;;;;;22.22;10.13;;;;;;;;;;345715;150;859438;-58
2021/12/24 01:25:02;;;;;;;14.94;7.90;;;;;;;;;;351914;149;858819;-58
2021/12/24 01:25:58;;;;;;;12.00;7.02;;;;;;;;;;348314;150;858075;-58
2021/12/24 01:27:16;;;;;;;15.28;8.02;;;;;;;;;;348827;149;857498;-59
2021/12/24 01:38:08;;;;;;;20.41;8.43;;;;;;;;;;350304;149;857554;-58
2021/12/24 01:39:11;;;;;;;13.56;8.04;;;;;;;;;;352574;149;859717;-58
2021/12/24 01:40:27;;;;;;;19.14;9.51;;;;;;;;;;353575;150;865751;-58
2021/12/24 01:42:47;;;;;;;11.07;5.55;;;;;;;;;;351130;149;859432;-57
2021/12/24 01:43:49;;;;;;;10.20;5.89;;;;;;;;;;354516;150;864096;-59
2021/12/24 01:44:51;;;;;;;16.18;8.11;;;;;;;;;;353419;148;866893;-57
2021/12/24 01:45:53;;;;;;;25.61;9.89;;;;;;;;;;353256;149;865720;-58
2021/12/24 01:46:55;;;;;;;12.34;6.20;;;;;;;;;;355905;150;865525;-58
2021/12/24 01:48:04;;;;;;;16.13;7.99;;;;;;;;;;351039;150;857536;-58
2021/12/24 01:49:06;;;;;;;23.22;10.41;;;;;;;;;;352563;149;856781;-58
2021/12/24 01:50:07;;;;;;;17.79;8.41;;;;;;;;;;353274;150;859181;-58
2021/12/24 01:51:09;;;;;;;24.69;11.07;;;;;;;;;;352568;150;857359;-58
2021/12/24 01:52:10;;;;;;;17.52;8.68;;;;;;;;;;353218;149;864969;-59
2021/12/24 01:53:12;;;;;;;17.24;8.20;;;;;;;;;;352530;149;857309;-58
2021/12/24 01:54:14;;;;;;;17.38;7.48;;;;;;;;;;355958;150;865183;-58
2021/12/24 01:55:15;;;;;;;26.04;10.01;;;;;;;;;;353947;150;857508;-58
2021/12/24 01:56:17;;;;;;;19.51;10.42;;;;;;;;;;355083;149;857249;-58
2021/12/24 01:57:19;;;;;;;14.61;7.06;;;;;;;;;;355409;149;859262;-58
2021/12/24 01:58:21;;;;;;;21.56;10.30;;;;;;;;;;355932;149;867468;-58
2021/12/24 01:59:23;;;;;;;11.20;5.36;;;;;;;;;;352712;150;859010;-58
2021/12/24 02:00:27;;;;;;;21.99;10.94;;;;;;;;;;353380;149;858725;-58
2021/12/24 02:01:29;;;;;;;16.15;8.51;;;;;;;;;;358062;150;859601;-63
2021/12/24 02:02:30;;;;;;;20.61;10.66;;;;;;;;;;355528;149;859448;-58
2021/12/24 02:03:32;;;;;;;26.94;11.16;;;;;;;;;;352196;149;865010;-58
2021/12/24 02:04:33;;;;;;;21.86;10.41;;;;;;;;;;353564;149;865336;-58
2021/12/24 02:05:35;;;;;;;20.94;9.68;;;;;;;;;;349454;150;856903;-58
2021/12/24 02:06:37;;;;;;;22.39;10.58;;;;;;;;;;352993;149;865562;-58
2021/12/24 02:07:38;;;;;;;19.91;10.41;;;;;;;;;;354303;149;865184;-58
2021/12/24 02:08:40;;;;;;;14.98;8.44;;;;;;;;;;356514;149;864835;-58
2021/12/24 02:09:41;;;;;;;21.51;9.48;;;;;;;;;;352524;149;864992;-58
2021/12/24 02:10:43;;;;;;;8.32;4.18;;;;;;;;;;352976;149;864816;-58
2021/12/24 02:11:45;;;;;;;22.75;10.10;;;;;;;;;;350749;149;866019;-58
2021/12/24 02:12:47;;;;;;;16.95;7.88;;;;;;;;;;349162;150;864018;-58
2021/12/24 02:13:49;;;;;;;20.53;9.45;;;;;;;;;;352108;150;859238;-56
2021/12/24 02:14:54;;;;;;;22.54;11.55;;;;;;;;;;353868;150;864944;-57
2021/12/24 02:28:35;;;;;;;17.20;8.68;;;;;;;;;;339044;156;866168;-59
2021/12/24 02:29:29;;;;;;;15.50;7.64;;;;;;;;;;336162;157;865142;-59
2021/12/24 02:30:31;;;;;;;10.56;5.61;;;;;;;;;;346541;149;857490;-59
2021/12/24 02:31:32;;;;;;;18.26;8.85;;;;;;;;;;353891;149;866618;-58
2021/12/24 02:32:34;;;;;;;15.98;7.92;;;;;;;;;;353007;149;867089;-58
2021/12/24 02:33:35;;;;;;;9.58;5.74;;;;;;;;;;352865;149;860547;-58
2021/12/24 02:34:37;;;;;;;14.17;7.12;;;;;;;;;;352728;149;865604;-58
2021/12/24 02:35:38;;;;;;;14.64;6.59;;;;;;;;;;351689;149;866926;-58
2021/12/24 02:36:40;;;;;;;18.34;8.74;;;;;;;;;;356673;149;866894;-58
2021/12/24 02:37:41;;;;;;;22.13;9.48;;;;;;;;;;354126;149;865045;-58
2021/12/24 02:38:43;;;;;;;17.43;6.84;;;;;;;;;;351368;149;857307;-58
2021/12/24 02:39:45;;;;;;;21.84;9.51;;;;;;;;;;349707;149;865939;-58
2021/12/24 02:40:46;;;;;;;14.33;5.94;;;;;;;;;;352643;149;865116;-58
2021/12/24 02:41:48;;;;;;;17.66;8.23;;;;;;;;;;349732;150;866212;-57
2021/12/24 02:42:53;;;;;;;21.56;11.07;;;;;;;;;;355604;150;866465;-57
2021/12/24 02:43:53;;;;;;;11.50;6.11;;;;;;;;;;350523;151;859493;-58
2021/12/24 02:44:55;;;;;;;19.74;9.80;;;;;;;;;;349822;150;857479;-58
2021/12/24 02:46:05;;;;;;;10.54;5.63;;;;;;;;;;351223;150;866580;-58
2021/12/24 02:49:13;;;;;;;19.69;8.05;;;;;;;;;;350285;150;866234;-58
2021/12/24 02:53:58;;;;;;;12.09;6.80;;;;;;;;;;349187;150;859917;-58
2021/12/24 02:55:00;;;;;;;15.90;7.12;;;;;;;;;;348955;150;859359;-59
2021/12/24 02:56:02;;;;;;;19.31;8.78;;;;;;;;;;349874;150;859793;-58
2021/12/24 02:57:09;;;;;;;20.09;7.59;;;;;;;;;;350383;150;865168;-58
2021/12/24 02:58:07;;;;;;;19.90;9.46;;;;;;;;;;352933;151;857475;-58
2021/12/24 02:59:15;;;;;;;16.86;7.96;;;;;;;;;;350941;150;865219;-58
2021/12/24 03:00:15;;;;;;;15.72;7.73;;;;;;;;;;352417;150;865225;-58
2021/12/24 03:01:18;;;;;;;18.57;9.53;;;;;;;;;;349780;150;858946;-58
2021/12/24 03:02:20;;;;;;;15.16;7.19;;;;;;;;;;352036;150;857463;-58
2021/12/24 03:03:22;;;;;;;18.03;7.31;;;;;;;;;;351490;150;857866;-57
2021/12/24 03:04:23;;;;;;;15.83;7.96;;;;;;;;;;351762;151;867049;-58
2021/12/24 03:05:25;;;;;;;12.41;6.45;;;;;;;;;;351283;150;865258;-58
2021/12/24 03:06:29;;;;;;;15.93;8.58;;;;;;;;;;355179;150;865049;-58
2021/12/24 03:07:30;;;;;;;19.11;9.47;;;;;;;;;;354244;148;857446;-58
2021/12/24 03:08:33;;;;;;;15.66;7.51;;;;;;;;;;354649;150;857451;-58
2021/12/24 03:09:34;;;;;;;19.67;8.47;;;;;;;;;;349727;150;865337;-58
2021/12/24 03:10:37;;;;;;;15.24;8.10;;;;;;;;;;350218;150;858810;-57
2021/12/24 03:11:38;;;;;;;17.14;8.90;;;;;;;;;;355820;150;865267;-58
2021/12/24 03:12:40;;;;;;;15.82;8.72;;;;;;;;;;350020;150;857512;-58
2021/12/24 03:13:42;;;;;;;14.21;7.31;;;;;;;;;;351516;150;866169;-58
2021/12/24 03:14:43;;;;;;;13.13;6.72;;;;;;;;;;351377;150;858952;-58
2021/12/24 03:15:47;;;;;;;14.50;7.04;;;;;;;;;;349752;150;858781;-58
2021/12/24 03:16:55;;;;;;;21.93;9.28;;;;;;;;;;352098;150;866332;-58
2021/12/24 03:17:56;;;;;;;17.38;8.44;;;;;;;;;;353066;150;865581;-58
2021/12/24 03:18:56;;;;;;;20.28;8.64;;;;;;;;;;354480;150;858897;-58
2021/12/24 03:20:04;;;;;;;19.84;8.99;;;;;;;;;;350858;150;859251;-58
2021/12/24 03:21:15;;;;;;;15.42;7.83;;;;;;;;;;350190;148;865979;-58
2021/12/24 03:22:31;;;;;;;18.34;8.04;;;;;;;;;;353433;150;865134;-58
2021/12/24 03:23:34;;;;;;;13.24;7.41;;;;;;;;;;347802;150;857300;-58
2021/12/24 03:25:28;;;;;;;12.38;6.96;;;;;;;;;;352300;150;859388;-57
2021/12/24 03:26:30;;;;;;;18.41;7.59;;;;;;;;;;351722;150;865220;-58
2021/12/24 03:27:32;;;;;;;16.68;8.07;;;;;;;;;;349423;150;865173;-58
2021/12/24 03:28:33;;;;;;;12.27;6.54;;;;;;;;;;352431;150;866276;-59
2021/12/24 03:29:35;;;;;;;22.39;7.81;;;;;;;;;;348631;150;857311;-59
2021/12/24 03:30:37;;;;;;;14.14;7.19;;;;;;;;;;350125;150;865217;-58
2021/12/24 03:31:38;;;;;;;16.15;7.63;;;;;;;;;;352758;150;865190;-58
2021/12/24 03:32:40;;;;;;;14.46;7.81;;;;;;;;;;355481;150;865091;-58
2021/12/24 03:33:41;;;;;;;19.16;8.38;;;;;;;;;;352195;150;858703;-58
2021/12/24 03:34:43;;;;;;;21.01;9.58;;;;;;;;;;350978;150;865317;-58
2021/12/24 03:35:44;;;;;;;18.25;9.59;;;;;;;;;;351297;151;866320;-58
2021/12/24 03:36:46;;;;;;;20.12;8.34;;;;;;;;;;350398;150;860385;-60
2021/12/24 03:37:48;;;;;;;11.56;5.94;;;;;;;;;;348916;150;865170;-58
2021/12/24 03:38:49;;;;;;;14.34;6.91;;;;;;;;;;348331;151;865313;-57
2021/12/24 03:39:51;;;;;;;15.86;7.38;;;;;;;;;;350140;150;866246;-58
2021/12/24 03:40:52;;;;;;;18.36;7.20;;;;;;;;;;349924;150;865591;-57
2021/12/24 03:41:54;;;;;;;21.52;8.71;;;;;;;;;;350544;150;857323;-57
2021/12/24 03:42:56;;;;;;;14.36;7.39;;;;;;;;;;349478;153;865201;-60
2021/12/24 03:43:57;;;;;;;17.19;9.94;;;;;;;;;;349403;150;857427;-58
2021/12/24 03:45:09;;;;;;;14.86;7.97;;;;;;;;;;351462;151;866815;-59
2021/12/24 03:46:07;;;;;;;14.98;7.49;;;;;;;;;;347511;151;859147;-58
2021/12/24 03:47:11;;;;;;;16.79;7.09;;;;;;;;;;350583;151;857428;-58
2021/12/24 03:48:20;;;;;;;10.88;5.20;;;;;;;;;;349884;151;859863;-58
2021/12/24 03:49:31;;;;;;;12.93;7.43;;;;;;;;;;348426;151;865487;-58
2021/12/24 03:50:26;;;;;;;13.29;6.76;;;;;;;;;;343925;151;857461;-57
2021/12/24 03:52:18;;;;;;;19.01;11.36;;;;;;;;;;349403;150;857449;-60
2021/12/24 03:54:58;;;;;;;11.51;6.28;;;;;;;;;;350875;151;865141;-57
2021/12/24 03:56:00;;;;;;;16.16;8.93;;;;;;;;;;352270;151;867438;-59
2021/12/24 03:57:02;;;;;;;21.78;10.21;;;;;;;;;;348113;151;857427;-58
2021/12/24 03:58:03;;;;;;;10.26;6.32;;;;;;;;;;347760;151;866468;-58
2021/12/24 03:59:05;;;;;;;18.72;7.04;;;;;;;;;;351945;151;865568;-59
2021/12/24 04:00:11;;;;;;;19.63;7.89;;;;;;;;;;350035;151;865164;-59
2021/12/24 04:01:13;;;;;;;13.74;7.74;;;;;;;;;;348862;150;858885;-59
2021/12/24 04:02:14;;;;;;;13.11;6.69;;;;;;;;;;349573;150;858791;-59
2021/12/24 04:03:16;;;;;;;20.71;7.70;;;;;;;;;;346813;151;865159;-59
2021/12/24 04:04:17;;;;;;;16.50;8.36;;;;;;;;;;351850;151;865185;-59
2021/12/24 04:05:19;;;;;;;13.97;6.91;;;;;;;;;;350156;150;865603;-58
2021/12/24 04:06:21;;;;;;;15.33;6.42;;;;;;;;;;348605;151;866020;-58
2021/12/24 04:07:23;;;;;;;18.69;7.70;;;;;;;;;;347505;150;866323;-58
2021/12/24 04:08:25;;;;;;;13.89;7.61;;;;;;;;;;343279;154;868008;-58
2021/12/24 04:09:28;;;;;;;13.54;8.34;;;;;;;;;;333798;159;865998;-58
2021/12/24 04:10:40;;;;;;;14.34;7.54;;;;;;;;;;336300;155;866869;-59
2021/12/24 04:11:33;;;;;;;15.79;7.28;;;;;;;;;;335951;157;867586;-58
2021/12/24 04:12:35;;;;;;;14.13;7.88;;;;;;;;;;345957;152;858763;-58
2021/12/24 04:13:36;;;;;;;13.81;7.79;;;;;;;;;;346433;152;856524;-59
2021/12/24 04:14:38;;;;;;;18.89;8.16;;;;;;;;;;348260;153;865381;-59
2021/12/24 04:15:39;;;;;;;11.70;6.52;;;;;;;;;;343636;152;857501;-58
2021/12/24 04:16:41;;;;;;;13.24;6.98;;;;;;;;;;346425;152;866881;-59
2021/12/24 04:17:44;;;;;;;15.16;6.92;;;;;;;;;;345083;153;859109;-59
2021/12/24 04:25:27;;;;;;;8.69;5.58;;;;;;;;;;343787;155;857689;-58
2021/12/24 04:26:28;;;;;;;10.39;5.69;;;;;;;;;;345839;152;857416;-58
2021/12/24 04:27:30;;;;;;;16.80;6.91;;;;;;;;;;345889;152;859176;-57
2021/12/24 04:28:32;;;;;;;12.07;6.46;;;;;;;;;;343765;153;857618;-58
2021/12/24 04:29:33;;;;;;;14.01;6.29;;;;;;;;;;345918;152;867083;-58
2021/12/24 04:30:41;;;;;;;9.94;6.23;;;;;;;;;;344565;152;866195;-58
2021/12/24 04:31:53;;;;;;;13.57;8.10;;;;;;;;;;345051;155;866000;-58
2021/12/24 04:33:49;;;;;;;14.23;7.25;;;;;;;;;;344626;152;856801;-58
2021/12/24 04:34:51;;;;;;;20.09;8.92;;;;;;;;;;347234;152;856424;-58
2021/12/24 04:35:59;;;;;;;12.43;5.58;;;;;;;;;;343394;153;864579;-59
2021/12/24 04:39:41;;;;;;;12.52;6.54;;;;;;;;;;344416;154;865538;-59
2021/12/24 04:51:19;;;;;;;14.78;7.51;;;;;;;;;;346708;151;857387;-56
2021/12/24 04:52:55;;;;;;;10.85;7.38;;;;;;;;;;345870;152;857375;-57
2021/12/24 05:01:41;;;;;;;15.06;6.61;;;;;;;;;;347510;151;859414;-58
2021/12/24 05:03:43;;;;;;;16.09;7.86;;;;;;;;;;347757;152;863094;-57
2021/12/24 05:04:55;;;;;;;18.13;8.64;;;;;;;;;;344739;151;857390;-58
2021/12/24 05:06:06;;;;;;;13.49;7.42;;;;;;;;;;346578;152;857450;-57
2021/12/24 05:07:07;;;;;;;16.77;7.34;;;;;;;;;;335136;158;857511;-56
2021/12/24 05:08:16;;;;;;;18.74;9.71;;;;;;;;;;343853;152;857165;-56
2021/12/24 05:09:10;;;;;;;19.19;8.57;;;;;;;;;;342327;152;861475;-58
2021/12/24 05:10:11;;;;;;;17.24;7.15;;;;;;;;;;345375;153;859133;-58
2021/12/24 05:11:13;;;;;;;8.13;5.39;;;;;;;;;;345596;152;857425;-58
2021/12/24 05:12:14;;;;;;;18.96;9.06;;;;;;;;;;345650;152;856964;-58
2021/12/24 05:13:16;;;;;;;17.89;8.37;;;;;;;;;;347107;153;865018;-58
2021/12/24 05:14:18;;;;;;;11.83;6.25;;;;;;;;;;340289;155;865285;-57
2021/12/24 05:15:20;;;;;;;14.31;8.36;;;;;;;;;;340413;152;860708;-58
2021/12/24 05:16:26;;;;;;;25.27;8.16;;;;;;;;;;345239;153;865175;-57
2021/12/24 05:17:49;;;;;;;11.59;6.76;;;;;;;;;;346149;153;860728;-58
2021/12/24 05:21:32;;;;;;;13.29;7.19;;;;;;;;;;341854;153;865243;-58
2021/12/24 05:22:33;;;;;;;13.11;6.08;;;;;;;;;;344712;152;857591;-57
2021/12/24 05:23:34;;;;;;;15.61;8.38;;;;;;;;;;346984;152;859967;-57
2021/12/24 05:24:36;;;;;;;15.86;8.67;;;;;;;;;;345033;153;856848;-57
2021/12/24 05:25:39;;;;;;;12.25;6.36;;;;;;;;;;344162;152;867352;-57
2021/12/24 05:26:43;;;;;;;18.16;9.28;;;;;;;;;;345438;152;865955;-57
2021/12/24 05:27:44;;;;;;;18.14;7.13;;;;;;;;;;344859;153;865039;-58
2021/12/24 05:28:46;;;;;;;13.48;7.49;;;;;;;;;;344174;153;857331;-58
2021/12/24 05:29:47;;;;;;;20.53;8.54;;;;;;;;;;344595;152;857488;-56
2021/12/24 05:30:49;;;;;;;18.87;8.22;;;;;;;;;;346517;153;866525;-57
2021/12/24 05:31:51;;;;;;;16.58;8.31;;;;;;;;;;344449;153;866040;-57
2021/12/24 05:32:52;;;;;;;14.29;7.46;;;;;;;;;;344842;152;865631;-56
2021/12/24 05:33:54;;;;;;;15.55;8.38;;;;;;;;;;345930;152;865208;-57
2021/12/24 05:34:55;;;;;;;17.56;7.71;;;;;;;;;;346859;152;865165;-57
2021/12/24 05:35:57;;;;;;;11.91;4.53;;;;;;;;;;345896;152;857516;-57
2021/12/24 05:36:58;;;;;;;17.94;7.76;;;;;;;;;;344850;152;865216;-58
2021/12/24 05:38:00;;;;;;;10.57;7.12;;;;;;;;;;347299;153;866892;-57
2021/12/24 05:39:02;;;;;;;16.08;8.19;;;;;;;;;;345042;153;858161;-57
2021/12/24 05:40:04;;;;;;;15.52;8.92;;;;;;;;;;347802;152;857410;-57
2021/12/24 05:41:06;;;;;;;16.75;8.03;;;;;;;;;;346514;152;857934;-57
2021/12/24 05:42:07;;;;;;;13.80;7.09;;;;;;;;;;347963;153;858738;-58
2021/12/24 05:43:09;;;;;;;15.34;8.44;;;;;;;;;;346169;153;865216;-57
2021/12/24 05:44:15;;;;;;;12.58;7.26;;;;;;;;;;344019;152;865110;-56
2021/12/24 05:45:14;;;;;;;10.98;6.15;;;;;;;;;;344025;152;865123;-57
2021/12/24 05:46:16;;;;;;;14.63;7.28;;;;;;;;;;345667;153;857477;-57
2021/12/24 05:47:18;;;;;;;18.19;8.94;;;;;;;;;;344574;152;858352;-57
2021/12/24 05:48:19;;;;;;;17.44;9.56;;;;;;;;;;347012;152;857385;-57
2021/12/24 05:49:21;;;;;;;6.13;4.12;;;;;;;;;;345559;152;865228;-57
2021/12/24 05:50:24;;;;;;;11.19;6.48;;;;;;;;;;345362;153;865607;-60
2021/12/24 05:51:25;;;;;;;15.19;8.01;;;;;;;;;;343330;152;857491;-56
2021/12/24 05:52:27;;;;;;;12.43;7.51;;;;;;;;;;346904;153;859236;-58
2021/12/24 05:53:29;;;;;;;13.73;6.41;;;;;;;;;;345840;152;868078;-56
2021/12/24 05:54:30;;;;;;;12.41;5.41;;;;;;;;;;344426;152;859276;-56
2021/12/24 05:55:32;;;;;;;16.69;8.10;;;;;;;;;;344087;153;859468;-57
2021/12/24 05:56:33;;;;;;;14.79;8.84;;;;;;;;;;345245;153;865426;-56
2021/12/24 05:57:35;;;;;;;9.86;6.09;;;;;;;;;;346593;152;867002;-56
2021/12/24 05:58:36;;;;;;;15.68;7.07;;;;;;;;;;345049;152;864311;-56
2021/12/24 05:59:38;;;;;;;18.67;7.98;;;;;;;;;;338691;156;856744;-57
2021/12/24 06:00:40;;;;;;;16.22;7.29;;;;;;;;;;339905;155;864173;-56
2021/12/24 06:01:41;;;;;;;16.04;7.60;;;;;;;;;;346098;152;864060;-57
2021/12/24 06:02:43;;;;;;;16.99;8.99;;;;;;;;;;344876;153;856531;-57
2021/12/24 06:03:44;;;;;;;12.03;7.02;;;;;;;;;;345692;153;864000;-59
2021/12/24 06:04:46;;;;;;;16.47;8.27;;;;;;;;;;349343;152;856375;-57
2021/12/24 06:05:48;;;;;;;11.03;5.52;;;;;;;;;;345817;153;863980;-57
2021/12/24 06:06:49;;;;;;;16.67;8.49;;;;;;;;;;345447;153;864014;-57
2021/12/24 06:07:51;;;;;;;17.53;7.57;;;;;;;;;;345743;152;856727;-57
2021/12/24 06:08:52;;;;;;;9.64;6.08;;;;;;;;;;346759;152;863938;-57
2021/12/24 06:09:54;;;;;;;13.08;7.60;;;;;;;;;;347159;153;864806;-57
2021/12/24 06:10:55;;;;;;;15.44;8.57;;;;;;;;;;346261;152;864778;-55
2021/12/24 06:11:57;;;;;;;16.36;10.11;;;;;;;;;;345787;152;864206;-57
2021/12/24 06:12:59;;;;;;;14.74;6.29;;;;;;;;;;348606;152;864109;-56
2021/12/24 06:14:09;;;;;;;11.40;6.83;;;;;;;;;;345656;153;864335;-59
2021/12/24 06:15:06;;;;;;;15.66;8.08;;;;;;;;;;345719;152;864327;-59
2021/12/24 06:16:09;;;;;;;11.54;7.47;;;;;;;;;;346522;152;856685;-58
2021/12/24 06:17:15;;;;;;;17.05;9.46;;;;;;;;;;346467;153;857445;-56
2021/12/24 06:18:26;;;;;;;14.42;7.42;;;;;;;;;;345399;153;856286;-57
2021/12/24 06:19:26;;;;;;;13.79;7.29;;;;;;;;;;345681;152;856886;-57
2021/12/24 06:20:28;;;;;;;15.06;7.32;;;;;;;;;;346676;153;857248;-57
2021/12/24 06:21:30;;;;;;;12.23;6.67;;;;;;;;;;346689;152;864197;-56
2021/12/24 06:22:31;;;;;;;13.71;7.62;;;;;;;;;;346410;152;864058;-57
2021/12/24 06:23:33;;;;;;;14.82;7.66;;;;;;;;;;345909;152;864240;-57
2021/12/24 06:24:35;;;;;;;10.84;6.59;;;;;;;;;;346473;153;864598;-57
2021/12/24 06:25:36;;;;;;;13.59;7.25;;;;;;;;;;345839;153;857367;-57
2021/12/24 06:26:38;;;;;;;10.50;6.24;;;;;;;;;;346779;152;864055;-57
2021/12/24 06:27:39;;;;;;;19.84;6.08;;;;;;;;;;347645;152;864273;-56
2021/12/24 06:28:41;;;;;;;12.80;6.86;;;;;;;;;;348716;154;863517;-58
2021/12/24 06:29:42;;;;;;;11.86;6.27;;;;;;;;;;346352;152;864127;-57
2021/12/24 06:30:44;;;;;;;14.79;7.51;;;;;;;;;;348300;152;856978;-57
2021/12/24 06:31:45;;;;;;;14.54;6.77;;;;;;;;;;346008;153;864079;-56
2021/12/24 06:32:47;;;;;;;9.69;5.79;;;;;;;;;;345553;154;864107;-56
2021/12/24 06:33:49;;;;;;;11.34;6.89;;;;;;;;;;345721;152;864067;-56
2021/12/24 06:34:50;;;;;;;19.38;8.30;;;;;;;;;;346175;152;863943;-57
2021/12/24 06:35:56;;;;;;;11.77;6.98;;;;;;;;;;346874;154;863945;-57
2021/12/24 06:36:58;;;;;;;12.10;5.57;;;;;;;;;;346026;153;864012;-56
2021/12/24 06:38:01;;;;;;;11.03;6.79;;;;;;;;;;346842;152;856678;-57
2021/12/24 06:39:03;;;;;;;13.88;7.42;;;;;;;;;;346613;154;857275;-57
2021/12/24 06:40:06;;;;;;;14.33;7.83;;;;;;;;;;346361;152;856882;-57
2021/12/24 06:41:09;;;;;;;9.70;4.98;;;;;;;;;;347697;152;864041;-58
2021/12/24 06:42:10;;;;;;;9.98;5.54;;;;;;;;;;350854;152;856335;-57
2021/12/24 06:43:12;;;;;;;13.84;8.19;;;;;;;;;;346785;155;856507;-57
2021/12/24 06:44:14;;;;;;;11.94;6.51;;;;;;;;;;347339;152;863897;-56
2021/12/24 06:45:23;;;;;;;9.60;6.43;;;;;;;;;;347395;152;864516;-57
2021/12/24 06:46:19;;;;;;;16.55;7.51;;;;;;;;;;343421;153;857581;-57
2021/12/24 06:47:21;;;;;;;16.16;8.74;;;;;;;;;;345852;152;856272;-57
2021/12/24 06:48:22;;;;;;;14.47;8.72;;;;;;;;;;345995;153;856363;-57
2021/12/24 06:49:23;;;;;;;14.25;8.09;;;;;;;;;;344571;152;856469;-56
2021/12/24 06:50:25;;;;;;;21.09;11.96;;;;;;;;;;346498;155;856347;-57
2021/12/24 06:51:27;;;;;;;10.18;5.75;;;;;;;;;;345387;152;863668;-57
2021/12/24 06:52:28;;;;;;;14.99;8.56;;;;;;;;;;347251;152;864268;-58
2021/12/24 06:53:30;;;;;;;17.26;7.20;;;;;;;;;;346796;154;856588;-57
2021/12/24 06:54:33;;;;;;;18.26;9.93;;;;;;;;;;346232;154;863985;-57
2021/12/24 06:55:36;;;;;;;22.49;10.43;;;;;;;;;;347106;152;864773;-57
2021/12/24 06:56:38;;;;;;;14.15;8.37;;;;;;;;;;349367;153;856309;-57
2021/12/24 06:57:40;;;;;;;10.31;6.56;;;;;;;;;;347651;154;864558;-57
2021/12/24 06:58:41;;;;;;;13.91;7.13;;;;;;;;;;345841;153;856207;-57
2021/12/24 06:59:43;;;;;;;13.21;7.10;;;;;;;;;;345929;152;856244;-57
2021/12/24 07:00:45;;;;;;;14.98;6.69;;;;;;;;;;348965;150;864027;-57
2021/12/24 07:01:46;;;;;;;15.61;8.09;;;;;;;;;;345945;154;863877;-56
2021/12/24 07:02:48;;;;;;;12.16;6.99;;;;;;;;;;346671;152;864626;-57
2021/12/24 07:03:49;;;;;;;16.20;7.04;;;;;;;;;;347609;152;864901;-57
2021/12/24 07:04:51;;;;;;;15.64;8.44;;;;;;;;;;346023;154;864018;-57
2021/12/24 07:05:53;;;;;;;16.48;7.53;;;;;;;;;;345424;153;864357;-58
2021/12/24 07:06:54;;;;;;;21.83;9.61;;;;;;;;;;345888;152;856365;-57
2021/12/24 07:07:56;;;;;;;14.07;6.46;;;;;;;;;;347876;153;864295;-57
2021/12/24 07:08:57;;;;;;;13.74;7.65;;;;;;;;;;347825;153;863990;-57
2021/12/24 07:09:59;;;;;;;13.34;6.81;;;;;;;;;;346230;153;864091;-57
2021/12/24 07:11:00;;;;;;;17.43;8.53;;;;;;;;;;345333;152;864095;-58
2021/12/24 07:12:02;;;;;;;13.91;7.39;;;;;;;;;;346711;154;863960;-57
2021/12/24 07:13:04;;;;;;;17.72;7.86;;;;;;;;;;345290;153;864192;-57
2021/12/24 07:14:05;;;;;;;13.01;6.48;;;;;;;;;;345564;152;863994;-57
2021/12/24 07:15:07;;;;;;;16.16;7.74;;;;;;;;;;346404;153;863937;-58
2021/12/24 07:16:09;;;;;;;14.97;8.47;;;;;;;;;;346590;152;864457;-57
2021/12/24 07:17:10;;;;;;;13.49;7.15;;;;;;;;;;345246;152;856667;-56
2021/12/24 07:18:12;;;;;;;18.59;8.84;;;;;;;;;;346004;152;864438;-56
2021/12/24 07:19:14;;;;;;;13.11;6.85;;;;;;;;;;348035;153;863750;-56
2021/12/24 07:20:16;;;;;;;12.55;6.62;;;;;;;;;;345693;153;864303;-57
2021/12/24 07:21:18;;;;;;;10.54;5.99;;;;;;;;;;345844;152;856576;-57
2021/12/24 07:22:20;;;;;;;13.71;5.96;;;;;;;;;;345166;153;863892;-57
2021/12/24 07:23:21;;;;;;;13.08;7.01;;;;;;;;;;350920;153;864002;-57
2021/12/24 07:24:23;;;;;;;14.91;8.34;;;;;;;;;;345378;152;863975;-57
2021/12/24 07:25:24;;;;;;;14.29;7.66;;;;;;;;;;347290;152;863889;-57
2021/12/24 07:26:26;;;;;;;13.85;7.49;;;;;;;;;;347318;153;856700;-56